Geronimo, Texas
Current Conditions -  °F | °C
As of 11:02 PM on Friday 21 Nov 2014 (Local Time) from KBAZ Reporting Station
Overcast Overcast  
Wind Chill: 69°   Ceiling: 1400
Heat Index: 69°   Visibility: 10mi
Dew Point: 65°   Wind: 14mph
Humidity: 87%   Direction: 140°SE
Pressure: 30.05"   Gusts: NA
Location:  29.66°N, 97.97°W
Report Text: KBAZ 220502Z AUTO 14012KT 10SM OVC014 21/18 A3005 RMK AO2 T02060183
Loading
Personal Weather Stations






























Interactive Weather Map New forecast layout! Learn more

10-Day Weather Forecast

Advertisements
Track Severe Weather on mobile